Terminal Aerodrome Forecast
Issued by NWS

Home | Current Version | Previous Version | Text Only | Print | Product List | Glossary On
Versions: 1 2 3 4 5 6 7 8 9 10 11 12 13 14 15 16 17 18 19 20 21 22
000
FTUS43 KICT 011732
TAFCNU
TAF
KCNU 011732Z 0118/0218 16012KT P6SM VCTS SCT090CB BKN250
     FM012200 20013KT P6SM VCTS SCT050CB BKN100
     FM020300 24010KT P6SM VCTS BKN090CB
     FM020900 35009KT P6SM BKN025=

USA.gov is the U.S. government's official web portal to all federal, state and local government web resources and services.